Nogales International Airport
KOLS : rendu visible

Aérodrome :











RETROUVEZ-NOUS SUR...

 
LOGIN :

S'inscrire | Disclaimer

   EN    FR    IT 

 









Légende :    VFR   VFR Marginal   IFR   IFR Intensif   IFR Très Intensif
Visi : 
Plafond : 
>= 8 km
>= 3000ft
5 à 8 km
1000 à 3000 ft
1500m à 5 km
500 à 1000 ft
800 à 1500m
200 à 500 ft
< 800m
< 200 ft
Symboles :   Orages  Brouillard  Fortes neiges  Fortes précipitations  Vent > 20 kt






- Altitude de l'aérodrome : 3955 ft


KOLS - Nogales International

DERNIER METAR :
  • 081154Z AUTO 13006KT 10SM CLR 09/06 A3003 RMK AO2 SLP122 T00940056 10156 20094 56012

METARs EXPIRÉS :
  • 081054Z AUTO 00000KT 10SM CLR 10/06 A3004 RMK AO2 SLP123 T01000056
  • 080954Z AUTO 00000KT 10SM CLR 12/06 A3005 RMK AO2 SLP125 T01170056

TAF KOLS
Valide du 08 à 12h jusqu'au 09 à 12h UTC


081120Z 0812/0912 VRB03KT P6SM SKC
FM081700 17015G23KT P6SM SKC
FM082000 20022G30KT P6SM SCT090
FM090300 22013G21KT P6SM BKN090



MET'MAP, la Météo Aéronautique d'un coup d'oeil ! - Copyright ORBIFLY Décembre 2007 - Disclaimer

ORBIFLY MET'MAP TEAM :

Programmation & Développement : Alexandra Zaïnal
Sur une idée originale de : Baudouin d'Aumeries
Assistance à la programmation : Marc-Olivier Méhu
Soutien technique & logistique : Manuel Goepfert

Contact : metmap@orbifly.com




SOURCES & CREDITS :

   NOAA       Earth
Advisory